TBA9843 ZULS-ZUCK
Flight info
| Callsign | TBA9843 |
|---|---|
| Flight time | 2h 25m |
| Altitude | 37100 |
| Route | DM01D DM W9 CZH B213 VINEX VINXD2 |
| Aircraft | A319/M-SDE3FGHIRWY/LB1 |
Departure
| Time | 2026-04-20 01:39 |
|---|---|
| Airport | Lhasa Gonggar International Airport (ZULS) |
Arrival
| Time | 2026-04-20 04:04 |
|---|---|
| Airport | Chongqing Jiangbei International Airport (ZUCK) |
| Time | Latitude | Longitude | Altitude | Speed | Heading |
|---|---|---|---|---|---|
| 2026-04-20 01:15 | 29.29423 | 90.89984 | 11720 ft | 0 kts | 180° |
| 2026-04-20 01:30 | 29.29435 | 90.89984 | 11720 ft | 3 kts | 179° |
| 2026-04-20 01:30 | 29.29455 | 90.89983 | 11714 ft | 3 kts | 178° |
| 2026-04-20 01:30 | 29.29475 | 90.89983 | 11720 ft | 3 kts | 184° |
| 2026-04-20 01:31 | 29.29495 | 90.89985 | 11709 ft | 3 kts | 188° |
| 2026-04-20 01:31 | 29.29515 | 90.89988 | 11707 ft | 3 kts | 191° |
| 2026-04-20 01:31 | 29.29523 | 90.89990 | 11720 ft | 0 kts | 193° |
| 2026-04-20 01:35 | 29.29519 | 90.89984 | 11720 ft | 1 kts | 245° |
| 2026-04-20 01:35 | 29.29522 | 90.89963 | 11711 ft | 5 kts | 277° |
| 2026-04-20 01:35 | 29.29524 | 90.89900 | 11715 ft | 11 kts | 270° |
| 2026-04-20 01:35 | 29.29523 | 90.89794 | 11710 ft | 16 kts | 269° |
| 2026-04-20 01:36 | 29.29521 | 90.89646 | 11712 ft | 21 kts | 269° |
| 2026-04-20 01:36 | 29.29518 | 90.89457 | 11721 ft | 26 kts | 269° |
| 2026-04-20 01:36 | 29.29516 | 90.89303 | 11721 ft | 20 kts | 270° |
| 2026-04-20 01:36 | 29.29544 | 90.89203 | 11706 ft | 14 kts | 328° |
| 2026-04-20 01:37 | 29.29618 | 90.89194 | 11720 ft | 9 kts | 0° |
| 2026-04-20 01:37 | 29.29702 | 90.89195 | 11716 ft | 15 kts | 0° |
| 2026-04-20 01:37 | 29.29781 | 90.89270 | 11714 ft | 19 kts | 83° |
| 2026-04-20 01:37 | 29.29779 | 90.89383 | 11714 ft | 15 kts | 89° |
| 2026-04-20 01:38 | 29.29782 | 90.89557 | 11722 ft | 42 kts | 89° |
| 2026-04-20 01:38 | 29.29792 | 90.90193 | 11720 ft | 116 kts | 89° |
| 2026-04-20 01:38 | 29.29810 | 90.91374 | 11718 ft | 177 kts | 89° |
| 2026-04-20 01:38 | 29.29832 | 90.92886 | 12191 ft | 189 kts | 90° |
| 2026-04-20 01:39 | 29.29823 | 90.94407 | 12866 ft | 193 kts | 91° |
| 2026-04-20 01:39 | 29.29787 | 90.95960 | 13496 ft | 196 kts | 91° |
| 2026-04-20 01:39 | 29.29748 | 90.97487 | 13948 ft | 199 kts | 92° |
| 2026-04-20 01:39 | 29.29712 | 90.99166 | 14078 ft | 217 kts | 91° |
| 2026-04-20 01:40 | 29.29685 | 91.00974 | 14225 ft | 236 kts | 91° |
| 2026-04-20 01:40 | 29.29678 | 91.02937 | 14349 ft | 257 kts | 90° |
| 2026-04-20 01:40 | 29.29681 | 91.05078 | 14508 ft | 280 kts | 90° |
| 2026-04-20 01:40 | 29.29688 | 91.07361 | 14909 ft | 291 kts | 90° |
| 2026-04-20 01:41 | 29.29697 | 91.09705 | 15488 ft | 296 kts | 90° |
| 2026-04-20 01:41 | 29.29709 | 91.12053 | 16074 ft | 300 kts | 90° |
| 2026-04-20 01:41 | 29.29721 | 91.14452 | 16666 ft | 303 kts | 90° |
| 2026-04-20 01:41 | 29.29717 | 91.16885 | 17241 ft | 306 kts | 94° |
| 2026-04-20 01:42 | 29.29246 | 91.19264 | 17762 ft | 309 kts | 110° |
| 2026-04-20 01:42 | 29.28544 | 91.21618 | 18310 ft | 313 kts | 104° |
| 2026-04-20 01:42 | 29.28273 | 91.24141 | 18564 ft | 327 kts | 94° |
| 2026-04-20 01:42 | 29.28116 | 91.26815 | 18695 ft | 345 kts | 94° |
| 2026-04-20 01:43 | 29.27980 | 91.29586 | 18831 ft | 361 kts | 93° |
| 2026-04-20 01:43 | 29.27847 | 91.32517 | 18949 ft | 376 kts | 93° |
| 2026-04-20 01:43 | 29.27707 | 91.35579 | 19069 ft | 391 kts | 93° |
| 2026-04-20 01:43 | 29.27554 | 91.38746 | 19205 ft | 406 kts | 93° |
| 2026-04-20 01:44 | 29.27387 | 91.42032 | 19333 ft | 419 kts | 94° |
| 2026-04-20 01:44 | 29.27210 | 91.45414 | 19459 ft | 431 kts | 94° |
| 2026-04-20 01:44 | 29.27023 | 91.48892 | 19586 ft | 442 kts | 94° |
| 2026-04-20 01:44 | 29.26829 | 91.52436 | 19838 ft | 448 kts | 94° |
| 2026-04-20 01:45 | 29.26634 | 91.56012 | 20147 ft | 452 kts | 94° |
| 2026-04-20 01:45 | 29.26436 | 91.59626 | 20467 ft | 455 kts | 93° |
| 2026-04-20 01:45 | 29.26239 | 91.63208 | 20773 ft | 458 kts | 93° |
| 2026-04-20 01:45 | 29.26037 | 91.66874 | 21072 ft | 462 kts | 93° |
| 2026-04-20 01:46 | 29.25833 | 91.70562 | 21371 ft | 465 kts | 93° |
| 2026-04-20 01:46 | 29.25625 | 91.74265 | 21665 ft | 468 kts | 93° |
| 2026-04-20 01:46 | 29.25424 | 91.77995 | 21943 ft | 471 kts | 92° |
| 2026-04-20 01:46 | 29.25278 | 91.81757 | 22217 ft | 473 kts | 91° |
| 2026-04-20 01:47 | 29.25189 | 91.85488 | 22475 ft | 476 kts | 90° |
| 2026-04-20 01:47 | 29.25128 | 91.89301 | 22774 ft | 479 kts | 90° |
| 2026-04-20 01:47 | 29.25071 | 91.93130 | 23105 ft | 482 kts | 90° |
| 2026-04-20 01:47 | 29.25003 | 91.96982 | 23421 ft | 486 kts | 90° |
| 2026-04-20 01:48 | 29.24920 | 92.00872 | 23733 ft | 489 kts | 91° |
| 2026-04-20 01:48 | 29.24821 | 92.04782 | 24054 ft | 492 kts | 91° |
| 2026-04-20 01:48 | 29.24712 | 92.08711 | 24368 ft | 495 kts | 91° |
| 2026-04-20 01:48 | 29.24600 | 92.12671 | 24675 ft | 498 kts | 91° |
| 2026-04-20 01:49 | 29.24488 | 92.16654 | 24969 ft | 500 kts | 91° |
| 2026-04-20 01:49 | 29.24377 | 92.20641 | 25282 ft | 502 kts | 91° |
| 2026-04-20 01:49 | 29.24266 | 92.24614 | 25578 ft | 504 kts | 91° |
| 2026-04-20 01:49 | 29.24157 | 92.28641 | 25874 ft | 506 kts | 91° |
| 2026-04-20 01:50 | 29.24049 | 92.32678 | 26226 ft | 507 kts | 91° |
| 2026-04-20 01:50 | 29.23942 | 92.36710 | 26660 ft | 505 kts | 91° |
| 2026-04-20 01:50 | 29.23835 | 92.40738 | 27056 ft | 504 kts | 92° |
| 2026-04-20 01:50 | 29.23728 | 92.44690 | 27507 ft | 503 kts | 92° |
| 2026-04-20 01:51 | 29.23614 | 92.48687 | 27953 ft | 501 kts | 92° |
| 2026-04-20 01:51 | 29.23540 | 92.52680 | 28382 ft | 501 kts | 88° |
| 2026-04-20 01:51 | 29.23897 | 92.56646 | 28813 ft | 500 kts | 79° |
| 2026-04-20 01:51 | 29.24773 | 92.60500 | 29252 ft | 498 kts | 70° |
| 2026-04-20 01:52 | 29.26121 | 92.64145 | 29672 ft | 497 kts | 62° |
| 2026-04-20 01:52 | 29.27786 | 92.67565 | 30055 ft | 496 kts | 60° |
| 2026-04-20 01:52 | 29.29493 | 92.71004 | 30437 ft | 496 kts | 59° |
| 2026-04-20 01:52 | 29.31197 | 92.74439 | 30785 ft | 497 kts | 59° |
| 2026-04-20 01:53 | 29.32910 | 92.77891 | 31188 ft | 497 kts | 59° |
| 2026-04-20 01:53 | 29.34617 | 92.81334 | 31566 ft | 497 kts | 59° |
| 2026-04-20 01:53 | 29.36323 | 92.84785 | 31910 ft | 497 kts | 59° |
| 2026-04-20 01:53 | 29.38028 | 92.88242 | 32280 ft | 497 kts | 59° |
| 2026-04-20 01:54 | 29.39731 | 92.91701 | 32604 ft | 498 kts | 59° |
| 2026-04-20 01:54 | 29.41433 | 92.95157 | 32965 ft | 498 kts | 59° |
| 2026-04-20 01:54 | 29.43115 | 92.98576 | 33308 ft | 498 kts | 59° |
| 2026-04-20 01:54 | 29.44838 | 93.02083 | 33652 ft | 499 kts | 59° |
| 2026-04-20 01:55 | 29.46521 | 93.05507 | 33997 ft | 499 kts | 59° |
| 2026-04-20 01:55 | 29.48230 | 93.08984 | 34338 ft | 499 kts | 59° |
| 2026-04-20 01:55 | 29.49938 | 93.12460 | 34675 ft | 499 kts | 58° |
| 2026-04-20 01:55 | 29.51645 | 93.15937 | 34952 ft | 501 kts | 58° |
| 2026-04-20 01:56 | 29.53358 | 93.19432 | 35279 ft | 501 kts | 58° |
| 2026-04-20 01:56 | 29.55069 | 93.22927 | 35507 ft | 503 kts | 58° |
| 2026-04-20 01:56 | 29.56784 | 93.26437 | 35789 ft | 504 kts | 58° |
| 2026-04-20 01:56 | 29.58500 | 93.29947 | 36044 ft | 505 kts | 58° |
| 2026-04-20 01:57 | 29.60219 | 93.33465 | 36283 ft | 505 kts | 58° |
| 2026-04-20 01:57 | 29.61362 | 93.35804 | 36456 ft | 506 kts | 58° |
| 2026-04-20 01:57 | 29.63644 | 93.40482 | 36747 ft | 508 kts | 58° |
| 2026-04-20 01:57 | 29.64809 | 93.42873 | 36884 ft | 508 kts | 57° |
| 2026-04-20 01:58 | 29.68815 | 93.51110 | 36933 ft | 506 kts | 58° |
| 2026-04-20 01:58 | 29.71676 | 93.57023 | 36947 ft | 504 kts | 58° |
| 2026-04-20 01:59 | 29.75067 | 93.64030 | 36947 ft | 503 kts | 58° |
| 2026-04-20 01:59 | 29.78472 | 93.71066 | 36951 ft | 503 kts | 58° |
| 2026-04-20 02:00 | 29.81871 | 93.78104 | 36954 ft | 502 kts | 58° |
| 2026-04-20 02:00 | 29.85260 | 93.85149 | 36955 ft | 502 kts | 58° |
| 2026-04-20 02:01 | 29.88591 | 93.92213 | 36953 ft | 503 kts | 63° |
| 2026-04-20 02:01 | 29.90718 | 93.99904 | 36961 ft | 506 kts | 76° |
| 2026-04-20 02:02 | 29.92267 | 94.07803 | 36958 ft | 505 kts | 76° |
| 2026-04-20 02:02 | 29.93814 | 94.15614 | 36956 ft | 505 kts | 76° |
| 2026-04-20 02:03 | 29.95389 | 94.23535 | 36959 ft | 505 kts | 76° |
| 2026-04-20 02:03 | 29.96949 | 94.31440 | 36966 ft | 506 kts | 76° |
| 2026-04-20 02:04 | 29.98486 | 94.39333 | 36961 ft | 506 kts | 76° |
| 2026-04-20 02:04 | 30.00028 | 94.47263 | 36964 ft | 507 kts | 76° |
| 2026-04-20 02:05 | 30.01576 | 94.55205 | 36978 ft | 506 kts | 76° |
| 2026-04-20 02:05 | 30.03118 | 94.63133 | 36984 ft | 506 kts | 77° |
| 2026-04-20 02:06 | 30.04641 | 94.71056 | 36989 ft | 506 kts | 77° |
| 2026-04-20 02:06 | 30.06156 | 94.78983 | 36982 ft | 505 kts | 77° |
| 2026-04-20 02:07 | 30.07683 | 94.86912 | 36984 ft | 506 kts | 76° |
| 2026-04-20 02:07 | 30.09198 | 94.94835 | 36981 ft | 505 kts | 77° |
| 2026-04-20 02:08 | 30.10719 | 95.02716 | 36978 ft | 505 kts | 76° |
| 2026-04-20 02:08 | 30.12287 | 95.10561 | 36983 ft | 506 kts | 76° |
| 2026-04-20 02:09 | 30.13873 | 95.18470 | 36982 ft | 505 kts | 76° |
| 2026-04-20 02:09 | 30.15442 | 95.26374 | 36980 ft | 505 kts | 76° |
| 2026-04-20 02:10 | 30.16998 | 95.34287 | 36983 ft | 505 kts | 77° |
| 2026-04-20 02:10 | 30.18542 | 95.42201 | 36975 ft | 505 kts | 76° |
| 2026-04-20 02:11 | 30.20097 | 95.50139 | 36982 ft | 506 kts | 77° |
| 2026-04-20 02:11 | 30.21652 | 95.58077 | 36983 ft | 506 kts | 76° |
| 2026-04-20 02:12 | 30.23192 | 95.66009 | 36983 ft | 506 kts | 77° |
| 2026-04-20 02:12 | 30.24720 | 95.73947 | 36983 ft | 506 kts | 77° |
| 2026-04-20 02:13 | 30.26257 | 95.81889 | 36985 ft | 506 kts | 77° |
| 2026-04-20 02:13 | 30.27790 | 95.89833 | 36977 ft | 506 kts | 76° |
| 2026-04-20 02:14 | 30.29300 | 95.97731 | 36966 ft | 506 kts | 77° |
| 2026-04-20 02:14 | 30.30827 | 96.05682 | 36975 ft | 507 kts | 76° |
| 2026-04-20 02:15 | 30.32427 | 96.13610 | 36978 ft | 506 kts | 76° |
| 2026-04-20 02:15 | 30.34046 | 96.21544 | 36995 ft | 506 kts | 76° |
| 2026-04-20 02:16 | 30.35635 | 96.29484 | 37003 ft | 505 kts | 76° |
| 2026-04-20 02:16 | 30.37205 | 96.37414 | 37022 ft | 506 kts | 76° |
| 2026-04-20 02:17 | 30.38771 | 96.45350 | 37029 ft | 505 kts | 76° |
| 2026-04-20 02:17 | 30.40338 | 96.53286 | 37027 ft | 505 kts | 76° |
| 2026-04-20 02:18 | 30.41899 | 96.61228 | 37028 ft | 505 kts | 76° |
| 2026-04-20 02:18 | 30.43452 | 96.69153 | 37021 ft | 503 kts | 76° |
| 2026-04-20 02:19 | 30.44990 | 96.77016 | 37031 ft | 503 kts | 76° |
| 2026-04-20 02:19 | 30.46523 | 96.84911 | 37023 ft | 501 kts | 76° |
| 2026-04-20 02:20 | 30.48042 | 96.92792 | 37016 ft | 501 kts | 76° |
| 2026-04-20 02:20 | 30.49567 | 97.00678 | 37019 ft | 500 kts | 76° |
| 2026-04-20 02:21 | 30.51724 | 97.12503 | 37011 ft | 499 kts | 83° |
| 2026-04-20 02:22 | 30.51640 | 97.20538 | 36997 ft | 498 kts | 96° |
| 2026-04-20 02:22 | 30.50986 | 97.28505 | 36997 ft | 499 kts | 96° |
| 2026-04-20 02:23 | 30.50330 | 97.36531 | 37007 ft | 499 kts | 96° |
| 2026-04-20 02:23 | 30.49666 | 97.44537 | 37016 ft | 499 kts | 96° |
| 2026-04-20 02:24 | 30.48989 | 97.52547 | 37012 ft | 499 kts | 96° |
| 2026-04-20 02:24 | 30.48319 | 97.60552 | 37008 ft | 498 kts | 96° |
| 2026-04-20 02:25 | 30.47644 | 97.68518 | 37021 ft | 499 kts | 96° |
| 2026-04-20 02:25 | 30.46952 | 97.76526 | 37025 ft | 499 kts | 96° |
| 2026-04-20 02:26 | 30.46256 | 97.84534 | 37024 ft | 499 kts | 96° |
| 2026-04-20 02:26 | 30.45558 | 97.92549 | 37027 ft | 498 kts | 96° |
| 2026-04-20 02:27 | 30.44860 | 98.00507 | 37033 ft | 498 kts | 96° |
| 2026-04-20 02:27 | 30.44159 | 98.08503 | 37036 ft | 498 kts | 96° |
| 2026-04-20 02:28 | 30.43450 | 98.16492 | 37039 ft | 498 kts | 96° |
| 2026-04-20 02:28 | 30.42756 | 98.24465 | 37041 ft | 497 kts | 96° |
| 2026-04-20 02:29 | 30.42143 | 98.32444 | 37032 ft | 497 kts | 95° |
| 2026-04-20 02:29 | 30.41550 | 98.40371 | 37035 ft | 498 kts | 95° |
| 2026-04-20 02:30 | 30.40931 | 98.48346 | 37053 ft | 497 kts | 95° |
| 2026-04-20 02:30 | 30.40301 | 98.56318 | 37057 ft | 496 kts | 96° |
| 2026-04-20 02:31 | 30.39657 | 98.64273 | 37052 ft | 497 kts | 96° |
| 2026-04-20 02:31 | 30.39016 | 98.72245 | 37061 ft | 496 kts | 96° |
| 2026-04-20 02:32 | 30.38379 | 98.80190 | 37057 ft | 495 kts | 96° |
| 2026-04-20 02:32 | 30.37727 | 98.88119 | 37061 ft | 494 kts | 96° |
| 2026-04-20 02:33 | 30.37074 | 98.96035 | 37062 ft | 493 kts | 96° |
| 2026-04-20 02:33 | 30.36421 | 99.03940 | 37067 ft | 493 kts | 96° |
| 2026-04-20 02:34 | 30.35759 | 99.11843 | 37077 ft | 493 kts | 96° |
| 2026-04-20 02:34 | 30.35096 | 99.19686 | 37078 ft | 493 kts | 96° |
| 2026-04-20 02:35 | 30.34429 | 99.27583 | 37085 ft | 492 kts | 96° |
| 2026-04-20 02:35 | 30.33754 | 99.35463 | 37089 ft | 491 kts | 96° |
| 2026-04-20 02:36 | 30.33075 | 99.43320 | 37094 ft | 491 kts | 96° |
| 2026-04-20 02:36 | 30.32397 | 99.51175 | 37098 ft | 490 kts | 96° |
| 2026-04-20 02:37 | 30.31713 | 99.59018 | 37110 ft | 489 kts | 96° |
| 2026-04-20 02:37 | 30.31025 | 99.66842 | 37104 ft | 489 kts | 96° |
| 2026-04-20 02:38 | 30.30331 | 99.74669 | 37111 ft | 488 kts | 96° |
| 2026-04-20 02:38 | 30.29628 | 99.82485 | 37107 ft | 488 kts | 96° |
| 2026-04-20 02:39 | 30.28928 | 99.90286 | 37111 ft | 487 kts | 96° |
| 2026-04-20 02:39 | 30.28229 | 99.98082 | 37110 ft | 487 kts | 96° |
| 2026-04-20 02:40 | 30.27570 | 100.05824 | 37105 ft | 487 kts | 95° |
| 2026-04-20 02:40 | 30.27010 | 100.13635 | 37108 ft | 487 kts | 95° |
| 2026-04-20 02:41 | 30.26461 | 100.21436 | 37109 ft | 486 kts | 95° |
| 2026-04-20 02:41 | 30.25883 | 100.29241 | 37111 ft | 486 kts | 96° |
| 2026-04-20 02:42 | 30.25284 | 100.37024 | 37104 ft | 486 kts | 96° |
| 2026-04-20 02:42 | 30.24682 | 100.44812 | 37113 ft | 486 kts | 96° |
| 2026-04-20 02:43 | 30.24077 | 100.52610 | 37113 ft | 486 kts | 96° |
| 2026-04-20 02:43 | 30.23472 | 100.60355 | 37112 ft | 487 kts | 96° |
| 2026-04-20 02:44 | 30.22862 | 100.68146 | 37118 ft | 487 kts | 96° |
| 2026-04-20 02:44 | 30.22243 | 100.75940 | 37114 ft | 487 kts | 96° |
| 2026-04-20 02:45 | 30.21623 | 100.83733 | 37117 ft | 487 kts | 96° |
| 2026-04-20 02:45 | 30.21097 | 100.90261 | 37113 ft | 487 kts | 96° |
| 2026-04-20 02:46 | 30.20464 | 100.98050 | 37121 ft | 486 kts | 96° |
| 2026-04-20 02:46 | 30.19836 | 101.05787 | 37117 ft | 486 kts | 96° |
| 2026-04-20 02:47 | 30.19194 | 101.13571 | 37111 ft | 487 kts | 96° |
| 2026-04-20 02:47 | 30.18544 | 101.21357 | 37098 ft | 487 kts | 96° |
| 2026-04-20 02:48 | 30.17892 | 101.29147 | 37099 ft | 487 kts | 96° |
| 2026-04-20 02:48 | 30.17242 | 101.36938 | 37104 ft | 487 kts | 96° |
| 2026-04-20 02:49 | 30.16582 | 101.44731 | 37099 ft | 487 kts | 96° |
| 2026-04-20 02:49 | 30.15916 | 101.52547 | 37102 ft | 487 kts | 96° |
| 2026-04-20 02:50 | 30.15254 | 101.60303 | 37098 ft | 487 kts | 96° |
| 2026-04-20 02:50 | 30.14642 | 101.68122 | 37099 ft | 487 kts | 91° |
| 2026-04-20 02:51 | 30.15429 | 101.75875 | 37111 ft | 485 kts | 73° |
| 2026-04-20 02:51 | 30.17840 | 101.83076 | 37108 ft | 483 kts | 65° |
| 2026-04-20 02:52 | 30.20474 | 101.90219 | 37107 ft | 483 kts | 65° |
| 2026-04-20 02:52 | 30.23103 | 101.97374 | 37106 ft | 483 kts | 65° |
| 2026-04-20 02:53 | 30.25731 | 102.04524 | 37107 ft | 483 kts | 65° |
| 2026-04-20 02:53 | 30.28352 | 102.11690 | 37106 ft | 483 kts | 65° |
| 2026-04-20 02:54 | 30.30969 | 102.18850 | 37104 ft | 483 kts | 65° |
| 2026-04-20 02:54 | 30.33588 | 102.26021 | 37116 ft | 483 kts | 65° |
| 2026-04-20 02:55 | 30.36200 | 102.33193 | 37117 ft | 484 kts | 65° |
| 2026-04-20 02:55 | 30.38818 | 102.40380 | 37116 ft | 485 kts | 66° |
| 2026-04-20 02:56 | 30.41432 | 102.47587 | 37114 ft | 485 kts | 66° |
| 2026-04-20 02:56 | 30.44024 | 102.54748 | 37115 ft | 485 kts | 66° |
| 2026-04-20 02:57 | 30.46640 | 102.61973 | 37119 ft | 486 kts | 66° |
| 2026-04-20 02:57 | 30.49249 | 102.69204 | 37121 ft | 486 kts | 66° |
| 2026-04-20 02:58 | 30.51840 | 102.76446 | 37133 ft | 486 kts | 66° |
| 2026-04-20 02:58 | 30.54426 | 102.83679 | 37133 ft | 487 kts | 66° |
| 2026-04-20 02:59 | 30.57008 | 102.90894 | 37138 ft | 487 kts | 67° |
| 2026-04-20 02:59 | 30.59616 | 102.98176 | 37138 ft | 487 kts | 67° |
| 2026-04-20 03:00 | 30.62199 | 103.05458 | 37140 ft | 487 kts | 67° |
| 2026-04-20 03:00 | 30.64709 | 103.12764 | 37138 ft | 488 kts | 68° |
| 2026-04-20 03:01 | 30.67124 | 103.20129 | 37131 ft | 488 kts | 74° |
| 2026-04-20 03:01 | 30.68127 | 103.27887 | 37130 ft | 486 kts | 92° |
| 2026-04-20 03:02 | 30.67548 | 103.35670 | 37126 ft | 484 kts | 98° |
| 2026-04-20 03:02 | 30.66834 | 103.43458 | 37127 ft | 484 kts | 98° |
| 2026-04-20 03:03 | 30.66136 | 103.51193 | 37119 ft | 485 kts | 97° |
| 2026-04-20 03:03 | 30.65416 | 103.59001 | 37120 ft | 486 kts | 98° |
| 2026-04-20 03:04 | 30.64668 | 103.66797 | 37088 ft | 484 kts | 101° |
| 2026-04-20 03:04 | 30.62930 | 103.74297 | 37102 ft | 482 kts | 110° |
| 2026-04-20 03:05 | 30.60859 | 103.81699 | 37113 ft | 482 kts | 110° |
| 2026-04-20 03:05 | 30.58794 | 103.89117 | 37120 ft | 482 kts | 110° |
| 2026-04-20 03:06 | 30.57596 | 103.96788 | 37126 ft | 486 kts | 92° |
| 2026-04-20 03:06 | 30.57939 | 104.04633 | 37135 ft | 487 kts | 87° |
| 2026-04-20 03:07 | 30.58406 | 104.12468 | 37140 ft | 487 kts | 87° |
| 2026-04-20 03:07 | 30.58856 | 104.20302 | 37143 ft | 486 kts | 88° |
| 2026-04-20 03:08 | 30.59304 | 104.28091 | 37142 ft | 486 kts | 87° |
| 2026-04-20 03:08 | 30.59806 | 104.35916 | 37141 ft | 486 kts | 87° |
| 2026-04-20 03:09 | 30.60320 | 104.43742 | 37139 ft | 486 kts | 87° |
| 2026-04-20 03:09 | 30.61267 | 104.51503 | 37134 ft | 487 kts | 75° |
| 2026-04-20 03:10 | 30.63223 | 104.59034 | 37136 ft | 487 kts | 73° |
| 2026-04-20 03:10 | 30.65172 | 104.66575 | 37140 ft | 487 kts | 74° |
| 2026-04-20 03:11 | 30.67103 | 104.74112 | 37140 ft | 486 kts | 74° |
| 2026-04-20 03:11 | 30.69016 | 104.81600 | 37138 ft | 487 kts | 74° |
| 2026-04-20 03:12 | 30.70940 | 104.89140 | 37139 ft | 486 kts | 74° |
| 2026-04-20 03:12 | 30.72863 | 104.96677 | 37138 ft | 486 kts | 74° |
| 2026-04-20 03:13 | 30.74788 | 105.04217 | 37135 ft | 487 kts | 75° |
| 2026-04-20 03:13 | 30.76708 | 105.11765 | 37136 ft | 486 kts | 75° |
| 2026-04-20 03:14 | 30.78608 | 105.19312 | 37136 ft | 486 kts | 75° |
| 2026-04-20 03:14 | 30.80488 | 105.26807 | 37135 ft | 486 kts | 75° |
| 2026-04-20 03:15 | 30.82389 | 105.34372 | 37137 ft | 486 kts | 75° |
| 2026-04-20 03:15 | 30.84293 | 105.41946 | 37138 ft | 486 kts | 75° |
| 2026-04-20 03:16 | 30.86030 | 105.49487 | 37136 ft | 485 kts | 78° |
| 2026-04-20 03:16 | 30.87594 | 105.57116 | 37134 ft | 485 kts | 78° |
| 2026-04-20 03:17 | 30.89153 | 105.64752 | 37133 ft | 485 kts | 78° |
| 2026-04-20 03:17 | 30.90762 | 105.72384 | 37129 ft | 485 kts | 78° |
| 2026-04-20 03:18 | 30.92384 | 105.80018 | 37122 ft | 485 kts | 78° |
| 2026-04-20 03:18 | 30.94003 | 105.87653 | 37122 ft | 485 kts | 78° |
| 2026-04-20 03:19 | 30.95585 | 105.95293 | 37119 ft | 484 kts | 81° |
| 2026-04-20 03:19 | 30.95912 | 106.02996 | 37118 ft | 477 kts | 99° |
| 2026-04-20 03:20 | 30.94500 | 106.10473 | 37118 ft | 471 kts | 109° |
| 2026-04-20 03:20 | 30.92758 | 106.17837 | 37111 ft | 472 kts | 109° |
| 2026-04-20 03:21 | 30.91020 | 106.25204 | 37108 ft | 472 kts | 109° |
| 2026-04-20 03:21 | 30.89270 | 106.32572 | 37114 ft | 472 kts | 109° |
| 2026-04-20 03:22 | 30.86933 | 106.39634 | 37111 ft | 463 kts | 124° |
| 2026-04-20 03:22 | 30.83047 | 106.45474 | 37113 ft | 452 kts | 141° |
| 2026-04-20 03:23 | 30.78487 | 106.50417 | 37104 ft | 451 kts | 141° |
| 2026-04-20 03:23 | 30.73910 | 106.55408 | 37104 ft | 452 kts | 141° |
| 2026-04-20 03:24 | 30.69322 | 106.60409 | 37103 ft | 451 kts | 141° |
| 2026-04-20 03:24 | 30.64731 | 106.65387 | 37107 ft | 451 kts | 142° |
| 2026-04-20 03:25 | 30.60132 | 106.70339 | 37100 ft | 451 kts | 142° |
| 2026-04-20 03:25 | 30.55506 | 106.75257 | 37101 ft | 451 kts | 142° |
| 2026-04-20 03:26 | 30.50875 | 106.80162 | 37095 ft | 451 kts | 142° |
| 2026-04-20 03:26 | 30.46242 | 106.85076 | 37108 ft | 451 kts | 142° |
| 2026-04-20 03:27 | 30.41643 | 106.89949 | 37098 ft | 451 kts | 142° |
| 2026-04-20 03:27 | 30.37009 | 106.94847 | 37099 ft | 451 kts | 142° |
| 2026-04-20 03:28 | 30.32369 | 106.99747 | 37096 ft | 451 kts | 142° |
| 2026-04-20 03:28 | 30.25411 | 107.07091 | 37100 ft | 451 kts | 142° |
| 2026-04-20 03:29 | 30.22981 | 107.09355 | 37096 ft | 445 kts | 153° |
| 2026-04-20 03:29 | 30.20235 | 107.10902 | 37090 ft | 436 kts | 166° |
| 2026-04-20 03:29 | 30.17309 | 107.11650 | 37091 ft | 428 kts | 179° |
| 2026-04-20 03:29 | 30.14355 | 107.11597 | 37080 ft | 422 kts | 191° |
| 2026-04-20 03:30 | 30.11527 | 107.10791 | 37078 ft | 417 kts | 203° |
| 2026-04-20 03:30 | 30.08949 | 107.09296 | 37074 ft | 414 kts | 215° |
| 2026-04-20 03:30 | 30.04263 | 107.05412 | 37072 ft | 415 kts | 217° |
| 2026-04-20 03:31 | 29.99562 | 107.01534 | 37066 ft | 416 kts | 216° |
| 2026-04-20 03:31 | 29.94878 | 106.97681 | 37056 ft | 417 kts | 216° |
| 2026-04-20 03:32 | 29.90156 | 106.93778 | 37054 ft | 419 kts | 216° |
| 2026-04-20 03:32 | 29.85416 | 106.89865 | 37053 ft | 419 kts | 216° |
| 2026-04-20 03:33 | 29.80664 | 106.85951 | 37058 ft | 420 kts | 216° |
| 2026-04-20 03:33 | 29.76703 | 106.82694 | 37061 ft | 421 kts | 216° |
| 2026-04-20 03:34 | 29.71605 | 106.79365 | 37057 ft | 424 kts | 202° |
| 2026-04-20 03:34 | 29.65856 | 106.77807 | 37062 ft | 428 kts | 185° |
| 2026-04-20 03:35 | 29.59921 | 106.78640 | 37065 ft | 436 kts | 165° |
| 2026-04-20 03:35 | 29.57118 | 106.80046 | 37064 ft | 442 kts | 153° |
| 2026-04-20 03:35 | 29.54594 | 106.82080 | 37063 ft | 447 kts | 142° |
| 2026-04-20 03:36 | 29.49991 | 106.86910 | 37063 ft | 449 kts | 141° |
| 2026-04-20 03:36 | 29.45001 | 106.91071 | 37058 ft | 439 kts | 162° |
| 2026-04-20 03:37 | 29.39176 | 106.93007 | 37061 ft | 434 kts | 172° |
| 2026-04-20 03:37 | 29.36239 | 106.93303 | 37056 ft | 424 kts | 186° |
| 2026-04-20 03:37 | 29.33350 | 106.92981 | 36997 ft | 410 kts | 189° |
| 2026-04-20 03:38 | 29.30559 | 106.92634 | 36842 ft | 398 kts | 189° |
| 2026-04-20 03:38 | 29.27875 | 106.91911 | 35794 ft | 398 kts | 204° |
| 2026-04-20 03:38 | 29.25397 | 106.90496 | 34888 ft | 398 kts | 209° |
| 2026-04-20 03:38 | 29.22951 | 106.89022 | 34083 ft | 396 kts | 208° |
| 2026-04-20 03:39 | 29.20632 | 106.87374 | 33361 ft | 391 kts | 220° |
| 2026-04-20 03:39 | 29.18739 | 106.85177 | 32646 ft | 386 kts | 228° |
| 2026-04-20 03:39 | 29.16967 | 106.82889 | 32305 ft | 380 kts | 228° |
| 2026-04-20 03:39 | 29.15283 | 106.80603 | 32168 ft | 371 kts | 235° |
| 2026-04-20 03:40 | 29.14112 | 106.78021 | 32018 ft | 364 kts | 249° |
| 2026-04-20 03:40 | 29.13357 | 106.75274 | 31735 ft | 362 kts | 260° |
| 2026-04-20 03:40 | 29.13506 | 106.72421 | 31425 ft | 364 kts | 285° |
| 2026-04-20 03:40 | 29.14744 | 106.69891 | 31074 ft | 371 kts | 310° |
| 2026-04-20 03:41 | 29.16852 | 106.68184 | 30674 ft | 378 kts | 335° |
| 2026-04-20 03:41 | 29.19412 | 106.67455 | 30275 ft | 382 kts | 351° |
| 2026-04-20 03:41 | 29.22076 | 106.67283 | 29872 ft | 384 kts | 357° |
| 2026-04-20 03:41 | 29.24741 | 106.67274 | 29501 ft | 383 kts | 357° |
| 2026-04-20 03:42 | 29.27391 | 106.67198 | 29156 ft | 379 kts | 354° |
| 2026-04-20 03:42 | 29.30001 | 106.66967 | 28929 ft | 372 kts | 351° |
| 2026-04-20 03:42 | 29.32534 | 106.66599 | 28800 ft | 361 kts | 348° |
| 2026-04-20 03:42 | 29.34986 | 106.66148 | 28651 ft | 353 kts | 347° |
| 2026-04-20 03:43 | 29.37409 | 106.65907 | 28405 ft | 350 kts | 2° |
| 2026-04-20 03:43 | 29.39806 | 106.66515 | 27535 ft | 361 kts | 24° |
| 2026-04-20 03:43 | 29.41867 | 106.68198 | 26701 ft | 368 kts | 48° |
| 2026-04-20 03:43 | 29.43257 | 106.70639 | 26078 ft | 366 kts | 69° |
| 2026-04-20 03:44 | 29.43844 | 106.73407 | 25553 ft | 360 kts | 88° |
| 2026-04-20 03:44 | 29.43598 | 106.76217 | 25034 ft | 352 kts | 108° |
| 2026-04-20 03:44 | 29.42558 | 106.78710 | 24516 ft | 345 kts | 128° |
| 2026-04-20 03:44 | 29.40887 | 106.80629 | 23990 ft | 337 kts | 147° |
| 2026-04-20 03:45 | 29.38809 | 106.81803 | 23473 ft | 330 kts | 166° |
| 2026-04-20 03:45 | 29.36591 | 106.82410 | 22959 ft | 327 kts | 171° |
| 2026-04-20 03:45 | 29.34366 | 106.82861 | 22464 ft | 323 kts | 172° |
| 2026-04-20 03:45 | 29.32158 | 106.83239 | 22006 ft | 319 kts | 173° |
| 2026-04-20 03:46 | 29.29970 | 106.83596 | 21547 ft | 316 kts | 173° |
| 2026-04-20 03:46 | 29.27809 | 106.83942 | 21094 ft | 312 kts | 176° |
| 2026-04-20 03:46 | 29.25670 | 106.83802 | 20643 ft | 306 kts | 194° |
| 2026-04-20 03:46 | 29.23697 | 106.82968 | 20196 ft | 301 kts | 211° |
| 2026-04-20 03:47 | 29.22058 | 106.81564 | 19752 ft | 296 kts | 227° |
| 2026-04-20 03:47 | 29.20831 | 106.79698 | 19308 ft | 292 kts | 243° |
| 2026-04-20 03:47 | 29.20118 | 106.77549 | 18846 ft | 288 kts | 259° |
| 2026-04-20 03:47 | 29.19959 | 106.75281 | 18412 ft | 285 kts | 275° |
| 2026-04-20 03:48 | 29.20345 | 106.73081 | 17976 ft | 282 kts | 291° |
| 2026-04-20 03:48 | 29.21229 | 106.71098 | 17567 ft | 279 kts | 306° |
| 2026-04-20 03:48 | 29.22534 | 106.69469 | 17151 ft | 277 kts | 321° |
| 2026-04-20 03:48 | 29.24160 | 106.68305 | 16729 ft | 276 kts | 336° |
| 2026-04-20 03:49 | 29.25971 | 106.67638 | 16307 ft | 275 kts | 346° |
| 2026-04-20 03:49 | 29.27834 | 106.67205 | 15898 ft | 273 kts | 350° |
| 2026-04-20 03:49 | 29.29740 | 106.66858 | 15504 ft | 272 kts | 351° |
| 2026-04-20 03:49 | 29.31604 | 106.66545 | 15117 ft | 270 kts | 352° |
| 2026-04-20 03:50 | 29.33435 | 106.66238 | 14745 ft | 268 kts | 351° |
| 2026-04-20 03:50 | 29.35275 | 106.65921 | 14364 ft | 266 kts | 351° |
| 2026-04-20 03:50 | 29.37108 | 106.65905 | 13971 ft | 264 kts | 14° |
| 2026-04-20 03:50 | 29.38755 | 106.66773 | 13590 ft | 261 kts | 40° |
| 2026-04-20 03:51 | 29.39894 | 106.68353 | 13182 ft | 257 kts | 66° |
| 2026-04-20 03:51 | 29.40332 | 106.70316 | 12786 ft | 256 kts | 90° |
| 2026-04-20 03:51 | 29.40012 | 106.72288 | 12404 ft | 253 kts | 116° |
| 2026-04-20 03:51 | 29.39033 | 106.73898 | 12021 ft | 245 kts | 139° |
| 2026-04-20 03:52 | 29.37593 | 106.74899 | 11575 ft | 244 kts | 162° |
| 2026-04-20 03:52 | 29.35945 | 106.75333 | 11132 ft | 246 kts | 169° |
| 2026-04-20 03:52 | 29.34268 | 106.75655 | 10706 ft | 244 kts | 170° |
| 2026-04-20 03:52 | 29.32595 | 106.75949 | 10366 ft | 242 kts | 170° |
| 2026-04-20 03:53 | 29.30937 | 106.75897 | 10108 ft | 242 kts | 197° |
| 2026-04-20 03:53 | 29.29490 | 106.74915 | 9821 ft | 246 kts | 222° |
| 2026-04-20 03:53 | 29.28490 | 106.73337 | 9520 ft | 248 kts | 245° |
| 2026-04-20 03:53 | 29.28092 | 106.71422 | 9200 ft | 249 kts | 269° |
| 2026-04-20 03:54 | 29.28400 | 106.69482 | 8871 ft | 250 kts | 295° |
| 2026-04-20 03:54 | 29.29375 | 106.67864 | 8602 ft | 246 kts | 320° |
| 2026-04-20 03:54 | 29.30806 | 106.66861 | 8311 ft | 240 kts | 345° |
| 2026-04-20 03:54 | 29.32422 | 106.66422 | 8021 ft | 238 kts | 352° |
| 2026-04-20 03:55 | 29.34024 | 106.65944 | 7711 ft | 239 kts | 337° |
| 2026-04-20 03:55 | 29.35385 | 106.64865 | 7409 ft | 240 kts | 314° |
| 2026-04-20 03:55 | 29.36294 | 106.63289 | 7114 ft | 239 kts | 291° |
| 2026-04-20 03:55 | 29.36750 | 106.61459 | 6830 ft | 238 kts | 285° |
| 2026-04-20 03:56 | 29.37214 | 106.59643 | 6566 ft | 236 kts | 287° |
| 2026-04-20 03:56 | 29.37687 | 106.57873 | 6310 ft | 234 kts | 287° |
| 2026-04-20 03:56 | 29.38172 | 106.56074 | 6049 ft | 233 kts | 287° |
| 2026-04-20 03:56 | 29.38792 | 106.54492 | 5872 ft | 229 kts | 311° |
| 2026-04-20 03:57 | 29.40175 | 106.53540 | 5743 ft | 226 kts | 352° |
| 2026-04-20 03:57 | 29.41712 | 106.53723 | 5626 ft | 224 kts | 18° |
| 2026-04-20 03:57 | 29.43207 | 106.54250 | 5496 ft | 225 kts | 18° |
| 2026-04-20 03:57 | 29.44701 | 106.54776 | 5369 ft | 225 kts | 18° |
| 2026-04-20 03:58 | 29.46195 | 106.55291 | 5245 ft | 225 kts | 17° |
| 2026-04-20 03:58 | 29.47695 | 106.55806 | 5123 ft | 224 kts | 17° |
| 2026-04-20 03:58 | 29.49190 | 106.56321 | 4993 ft | 224 kts | 17° |
| 2026-04-20 03:58 | 29.50680 | 106.56832 | 4864 ft | 220 kts | 17° |
| 2026-04-20 03:59 | 29.52126 | 106.57330 | 4733 ft | 214 kts | 17° |
| 2026-04-20 03:59 | 29.53530 | 106.57814 | 4623 ft | 206 kts | 17° |
| 2026-04-20 03:59 | 29.54855 | 106.58270 | 4479 ft | 193 kts | 17° |
| 2026-04-20 03:59 | 29.56117 | 106.58706 | 4267 ft | 185 kts | 17° |
| 2026-04-20 04:00 | 29.57327 | 106.59123 | 4036 ft | 177 kts | 17° |
| 2026-04-20 04:00 | 29.58450 | 106.59511 | 3814 ft | 160 kts | 16° |
| 2026-04-20 04:00 | 29.59482 | 106.59867 | 3615 ft | 150 kts | 15° |
| 2026-04-20 04:00 | 29.60472 | 106.60207 | 3411 ft | 147 kts | 16° |
| 2026-04-20 04:01 | 29.61443 | 106.60543 | 3211 ft | 145 kts | 16° |
| 2026-04-20 04:01 | 29.62410 | 106.60875 | 3030 ft | 145 kts | 16° |
| 2026-04-20 04:01 | 29.63374 | 106.61208 | 2838 ft | 144 kts | 15° |
| 2026-04-20 04:01 | 29.64334 | 106.61539 | 2645 ft | 143 kts | 16° |
| 2026-04-20 04:02 | 29.65283 | 106.61867 | 2457 ft | 142 kts | 16° |
| 2026-04-20 04:02 | 29.66230 | 106.62193 | 2269 ft | 142 kts | 16° |
| 2026-04-20 04:02 | 29.67158 | 106.62513 | 2079 ft | 141 kts | 16° |
| 2026-04-20 04:02 | 29.68096 | 106.62834 | 1891 ft | 140 kts | 15° |
| 2026-04-20 04:03 | 29.69032 | 106.63147 | 1691 ft | 140 kts | 15° |
| 2026-04-20 04:03 | 29.69960 | 106.63469 | 1501 ft | 138 kts | 17° |
| 2026-04-20 04:03 | 29.70875 | 106.63794 | 1363 ft | 134 kts | 13° |
| 2026-04-20 04:03 | 29.71546 | 106.64017 | 1358 ft | 58 kts | 17° |
| 2026-04-20 04:04 | 29.71829 | 106.64120 | 1361 ft | 36 kts | 17° |
| 2026-04-20 04:04 | 29.72011 | 106.64224 | 1360 ft | 28 kts | 30° |
| 2026-04-20 04:04 | 29.72152 | 106.64374 | 1358 ft | 29 kts | 50° |
| 2026-04-20 04:04 | 29.72197 | 106.64514 | 1356 ft | 15 kts | 109° |
| 2026-04-20 04:05 | 29.72176 | 106.64629 | 1354 ft | 16 kts | 103° |
| 2026-04-20 04:05 | 29.72147 | 106.64755 | 1356 ft | 17 kts | 107° |
| 2026-04-20 04:05 | 29.72116 | 106.64867 | 1354 ft | 15 kts | 107° |
| 2026-04-20 04:05 | 29.72086 | 106.64985 | 1354 ft | 16 kts | 107° |
| 2026-04-20 04:06 | 29.72053 | 106.65108 | 1353 ft | 15 kts | 106° |
| 2026-04-20 04:06 | 29.72021 | 106.65235 | 1353 ft | 18 kts | 107° |
| 2026-04-20 04:06 | 29.71929 | 106.65291 | 1351 ft | 18 kts | 200° |
| 2026-04-20 04:06 | 29.71830 | 106.65258 | 1352 ft | 10 kts | 195° |
| 2026-04-20 04:07 | 29.71788 | 106.65241 | 1350 ft | 1 kts | 212° |
| 2026-04-20 04:07 | 29.71784 | 106.65228 | 1350 ft | 2 kts | 256° |
| 2026-04-20 04:07 | 29.71790 | 106.65213 | 1353 ft | 3 kts | 300° |
| 2026-04-20 04:07 | 29.71798 | 106.65188 | 1351 ft | 4 kts | 282° |
| 2026-04-20 04:08 | 29.71803 | 106.65167 | 1351 ft | 0 kts | 284° |